createdAt,value
2019-06-08T00:00:13.057Z,17.50
2019-06-08T00:02:41.455Z,17.50
2019-06-08T00:05:10.395Z,17.50
2019-06-08T00:07:38.949Z,17.50
2019-06-08T00:10:08.864Z,17.50
2019-06-08T00:12:37.473Z,17.50
2019-06-08T00:15:08.641Z,17.50
2019-06-08T00:17:38.887Z,17.40
2019-06-08T00:20:08.565Z,17.40
2019-06-08T00:22:37.294Z,17.40
2019-06-08T00:25:06.897Z,17.30
2019-06-08T00:27:35.496Z,17.40
2019-06-08T00:30:06.194Z,17.40
2019-06-08T00:32:34.753Z,17.40
2019-06-08T00:35:04.013Z,17.30
2019-06-08T00:37:32.574Z,17.30
2019-06-08T00:40:01.124Z,17.30
2019-06-08T00:42:30.912Z,17.20
2019-06-08T00:44:59.474Z,17.20
2019-06-08T00:47:46.343Z,17.20
2019-06-08T00:49:59.015Z,17.20
2019-06-08T00:52:27.576Z,17.20
2019-06-08T00:54:56.131Z,17.10
2019-06-08T00:57:25.945Z,17.10
2019-06-08T00:59:54.686Z,17.10
2019-06-08T01:02:24.582Z,17.10
2019-06-08T01:04:53.217Z,17.00
2019-06-08T01:07:22.117Z,16.80
2019-06-08T01:09:58.513Z,16.80
2019-06-08T01:12:22.636Z,16.90
2019-06-08T01:14:51.338Z,16.80
2019-06-08T01:17:20.981Z,16.80
2019-06-08T01:19:49.814Z,16.70
2019-06-08T01:22:19.484Z,16.70
2019-06-08T01:24:48.298Z,16.70
2019-06-08T01:27:16.891Z,16.70
2019-06-08T01:29:45.499Z,16.70
2019-06-08T01:32:14.008Z,16.70
2019-06-08T01:34:42.547Z,16.70
2019-06-08T01:37:11.178Z,16.70
2019-06-08T01:39:39.899Z,16.70
2019-06-08T01:42:08.472Z,16.80
2019-06-08T01:44:37.033Z,16.90
2019-06-08T01:47:05.691Z,16.90
2019-06-08T01:49:34.329Z,16.90
2019-06-08T01:52:02.973Z,16.80
2019-06-08T01:54:33.154Z,16.70
2019-06-08T01:57:01.945Z,16.60
2019-06-08T01:59:32.559Z,16.50
2019-06-08T02:02:00.727Z,16.50
2019-06-08T02:04:30.033Z,16.50
2019-06-08T02:06:58.794Z,16.50
2019-06-08T02:09:28.600Z,16.50
2019-06-08T02:11:58.224Z,16.50
2019-06-08T02:14:27.124Z,16.50
2019-06-08T02:16:55.739Z,16.40
2019-06-08T02:19:24.257Z,16.50
2019-06-08T02:21:52.827Z,16.40
2019-06-08T02:24:21.444Z,16.40
2019-06-08T02:26:49.958Z,16.40
2019-06-08T02:29:18.506Z,16.50
2019-06-08T02:31:48.206Z,16.50
2019-06-08T02:34:17.002Z,16.40
2019-06-08T02:36:45.570Z,16.50
2019-06-08T02:39:14.151Z,16.50
2019-06-08T02:41:42.827Z,16.50
2019-06-08T02:44:11.446Z,16.50
2019-06-08T02:46:40.413Z,16.50
2019-06-08T02:49:09.294Z,16.50
2019-06-08T02:51:38.730Z,16.50
2019-06-08T02:54:07.288Z,16.40
2019-06-08T02:56:39.337Z,16.30
2019-06-08T02:59:09.275Z,16.30
2019-06-08T03:01:38.776Z,16.30
2019-06-08T03:04:08.184Z,16.30
2019-06-08T03:06:41.399Z,16.20
2019-06-08T03:09:08.511Z,16.30
2019-06-08T03:11:38.985Z,16.40
2019-06-08T03:14:07.530Z,16.40
2019-06-08T03:16:38.389Z,16.40
2019-06-08T03:19:21.237Z,16.40
2019-06-08T03:21:38.313Z,16.40
2019-06-08T03:24:07.268Z,16.50
2019-06-08T03:26:36.615Z,16.60
2019-06-08T03:29:06.068Z,16.70
2019-06-08T03:31:39.131Z,16.70
2019-06-08T03:34:04.874Z,16.80
2019-06-08T03:36:35.950Z,16.80
2019-06-08T03:39:05.186Z,16.80
2019-06-08T03:41:34.421Z,16.80
2019-06-08T03:44:04.477Z,16.90
2019-06-08T03:46:34.477Z,17.00
2019-06-08T03:49:03.317Z,17.30
2019-06-08T03:51:35.235Z,17.30
2019-06-08T03:54:02.810Z,17.50
2019-06-08T03:56:31.438Z,17.50
2019-06-08T03:59:00.030Z,17.60
2019-06-08T04:01:28.617Z,17.60
2019-06-08T04:03:59.870Z,17.70
2019-06-08T04:06:27.344Z,17.70
2019-06-08T04:08:55.975Z,17.70
2019-06-08T04:11:24.662Z,17.90
2019-06-08T04:13:53.233Z,17.90
2019-06-08T04:16:22.367Z,18.10
2019-06-08T04:18:51.001Z,18.30
2019-06-08T04:21:19.559Z,18.30
2019-06-08T04:23:48.103Z,18.50
2019-06-08T04:26:16.702Z,18.60
2019-06-08T04:28:47.188Z,18.70
2019-06-08T04:31:16.093Z,18.80
2019-06-08T04:33:46.312Z,18.80
2019-06-08T04:36:15.017Z,19.10
2019-06-08T04:38:45.554Z,19.10
2019-06-08T04:41:13.830Z,19.20
2019-06-08T04:43:42.954Z,19.30
2019-06-08T04:46:12.615Z,19.50
2019-06-08T04:48:42.856Z,19.60
2019-06-08T04:51:11.434Z,19.90
2019-06-08T04:53:40.890Z,20.00
2019-06-08T04:56:10.256Z,20.10
2019-06-08T04:58:39.795Z,20.00
2019-06-08T05:01:09.088Z,20.40
2019-06-08T05:03:39.045Z,20.60
2019-06-08T05:06:07.949Z,20.60
2019-06-08T05:08:36.519Z,20.80
2019-06-08T05:11:05.095Z,20.50
2019-06-08T05:13:33.654Z,20.50
2019-06-08T05:16:02.226Z,20.40
2019-06-08T05:18:30.821Z,20.20
2019-06-08T05:20:59.446Z,20.10
2019-06-08T05:23:28.034Z,19.80
2019-06-08T05:25:56.711Z,19.90
2019-06-08T05:28:25.266Z,20.20
2019-06-08T05:30:53.857Z,20.10
2019-06-08T05:33:24.026Z,20.20
2019-06-08T05:35:52.577Z,20.60
2019-06-08T05:38:21.260Z,20.50
2019-06-08T05:40:50.023Z,20.50
2019-06-08T05:43:18.730Z,20.70
2019-06-08T05:45:48.390Z,20.90
2019-06-08T05:48:17.196Z,20.60
2019-06-08T05:51:00.210Z,20.50
2019-06-08T05:53:16.276Z,20.70
2019-06-08T05:55:46.106Z,20.90
2019-06-08T05:58:15.031Z,21.30
2019-06-08T06:00:44.234Z,21.20
2019-06-08T06:03:13.746Z,21.40
2019-06-08T06:05:42.541Z,21.50
2019-06-08T06:08:19.005Z,21.80
2019-06-08T06:10:42.860Z,21.70
2019-06-08T06:13:11.539Z,21.20
2019-06-08T06:15:40.964Z,21.30
2019-06-08T06:18:09.714Z,21.10
2019-06-08T06:20:38.536Z,21.30
2019-06-08T06:23:07.206Z,21.40
2019-06-08T06:25:35.918Z,21.20
2019-06-08T06:28:06.345Z,21.40
2019-06-08T06:30:34.761Z,21.40
2019-06-08T06:33:03.631Z,21.60
2019-06-08T06:35:32.236Z,22.30
2019-06-08T06:38:00.906Z,22.10
2019-06-08T06:40:29.509Z,21.90
2019-06-08T06:42:58.178Z,22.00
2019-06-08T06:45:27.223Z,21.90
2019-06-08T06:47:56.059Z,22.30
2019-06-08T06:50:24.734Z,22.70
2019-06-08T06:52:53.268Z,22.60
2019-06-08T06:55:25.217Z,22.70
2019-06-08T06:57:53.450Z,22.70
2019-06-08T07:00:33.006Z,22.50
2019-06-08T07:03:01.785Z,22.20
2019-06-08T07:05:30.587Z,23.40
2019-06-08T07:07:59.168Z,22.50
2019-06-08T07:10:27.919Z,23.20
2019-06-08T07:12:56.470Z,23.20
2019-06-08T07:15:29.110Z,22.90
2019-06-08T07:17:58.526Z,22.80
2019-06-08T07:20:27.598Z,22.50
2019-06-08T07:22:56.266Z,23.60
2019-06-08T07:25:25.124Z,23.50
2019-06-08T07:27:55.169Z,23.60
2019-06-08T07:30:24.709Z,22.80
2019-06-08T07:32:53.371Z,23.10
2019-06-08T07:35:22.019Z,23.80
2019-06-08T07:37:51.884Z,24.60
2019-06-08T07:40:20.691Z,25.10
2019-06-08T07:42:49.661Z,23.90
2019-06-08T07:45:19.629Z,24.20
2019-06-08T07:47:48.229Z,23.70
2019-06-08T07:50:17.068Z,23.70
2019-06-08T07:52:45.746Z,23.90
2019-06-08T07:55:14.709Z,23.50
2019-06-08T07:57:43.351Z,23.10
2019-06-08T08:00:12.240Z,23.00
2019-06-08T08:02:41.118Z,23.00
2019-06-08T08:05:10.098Z,23.00
2019-06-08T08:07:38.667Z,22.80
2019-06-08T08:10:08.097Z,22.80
2019-06-08T08:12:36.831Z,23.10
2019-06-08T08:15:09.416Z,23.30
2019-06-08T08:17:38.092Z,24.20
2019-06-08T08:20:10.173Z,25.10
2019-06-08T08:22:38.953Z,24.50
2019-06-08T08:25:08.345Z,25.10
2019-06-08T08:27:37.538Z,25.50
2019-06-08T08:30:08.322Z,25.50
2019-06-08T08:32:38.043Z,26.30
2019-06-08T08:35:08.750Z,26.70
2019-06-08T08:37:38.092Z,26.60
2019-06-08T08:40:08.012Z,26.70
2019-06-08T08:42:38.727Z,26.20
2019-06-08T08:45:08.883Z,26.20
2019-06-08T08:47:38.656Z,26.80
2019-06-08T08:50:08.165Z,26.80
2019-06-08T08:52:39.966Z,26.50
2019-06-08T08:55:08.329Z,25.70
2019-06-08T08:57:38.664Z,25.90
2019-06-08T09:00:09.137Z,26.10
2019-06-08T09:02:38.436Z,26.00
2019-06-08T09:05:08.668Z,25.90
2019-06-08T09:07:38.491Z,25.60
2019-06-08T09:10:10.800Z,25.40
2019-06-08T09:12:37.993Z,25.60
2019-06-08T09:15:08.655Z,25.80
2019-06-08T09:17:38.851Z,25.50
2019-06-08T09:20:13.106Z,24.90
2019-06-08T09:22:52.455Z,25.60
2019-06-08T09:25:09.244Z,26.30
2019-06-08T09:27:38.236Z,25.40
2019-06-08T09:30:08.429Z,25.40
2019-06-08T09:32:38.274Z,25.50
2019-06-08T09:35:09.417Z,26.30
2019-06-08T09:37:37.855Z,25.90
2019-06-08T09:40:07.109Z,26.00
2019-06-08T09:42:35.758Z,24.50
2019-06-08T09:45:08.846Z,24.50
2019-06-08T09:47:38.157Z,24.40
2019-06-08T09:50:09.387Z,24.40
2019-06-08T09:52:40.927Z,24.30
2019-06-08T09:55:09.179Z,24.10
2019-06-08T09:57:38.559Z,23.80
2019-06-08T10:00:15.359Z,23.80
2019-06-08T10:02:38.816Z,23.80
2019-06-08T10:05:07.448Z,23.10
2019-06-08T10:07:38.528Z,23.00
2019-06-08T10:10:09.878Z,23.00
2019-06-08T10:12:37.725Z,22.80
2019-06-08T10:15:08.427Z,22.60
2019-06-08T10:17:37.717Z,22.50
2019-06-08T10:20:09.780Z,22.30
2019-06-08T10:22:36.992Z,22.10
2019-06-08T10:25:10.888Z,21.80
2019-06-08T10:27:38.612Z,21.70
2019-06-08T10:30:10.027Z,21.40
2019-06-08T10:32:38.940Z,21.00
2019-06-08T10:35:10.483Z,20.70
2019-06-08T10:37:39.401Z,20.60
2019-06-08T10:40:09.032Z,19.80
2019-06-08T10:42:40.081Z,19.50
2019-06-08T10:45:14.262Z,19.20
2019-06-08T10:47:39.510Z,19.10
2019-06-08T10:50:14.756Z,19.00
2019-06-08T10:52:40.497Z,19.10
2019-06-08T10:55:11.880Z,19.00
2019-06-08T10:57:39.706Z,18.80
2019-06-08T11:00:19.894Z,18.60
2019-06-08T11:02:41.611Z,18.60
2019-06-08T11:05:13.958Z,18.40
2019-06-08T11:07:40.514Z,18.40
2019-06-08T11:10:12.181Z,18.40
2019-06-08T11:12:39.929Z,18.20
2019-06-08T11:15:11.583Z,18.20
2019-06-08T11:17:39.203Z,18.20
2019-06-08T11:20:13.070Z,18.00
2019-06-08T11:22:40.182Z,18.00
2019-06-08T11:25:15.673Z,18.10
2019-06-08T11:27:39.342Z,18.10
2019-06-08T11:30:17.955Z,18.00
2019-06-08T11:32:38.532Z,17.80
2019-06-08T11:35:10.707Z,17.70
2019-06-08T11:37:38.701Z,17.80
2019-06-08T11:40:11.019Z,17.80
2019-06-08T11:42:39.225Z,17.70
2019-06-08T11:45:11.029Z,18.10
2019-06-08T11:47:39.616Z,18.30
2019-06-08T11:50:12.966Z,18.10
2019-06-08T11:52:39.758Z,18.50
2019-06-08T11:55:11.292Z,18.90
2019-06-08T11:57:40.409Z,18.90
2019-06-08T12:00:23.398Z,18.90
2019-06-08T12:02:41.403Z,19.20
2019-06-08T12:05:13.828Z,19.70
2019-06-08T12:07:41.762Z,20.10
2019-06-08T12:10:12.479Z,20.30
2019-06-08T12:12:41.037Z,20.90
2019-06-08T12:15:11.978Z,20.80
2019-06-08T12:17:40.142Z,20.40
2019-06-08T12:20:13.968Z,20.20
2019-06-08T12:22:40.210Z,20.40
2019-06-08T12:25:10.322Z,20.40
2019-06-08T12:27:40.268Z,20.20
2019-06-08T12:30:17.339Z,19.80
2019-06-08T12:32:39.421Z,20.00
2019-06-08T12:35:10.685Z,20.30
2019-06-08T12:37:38.941Z,20.80
2019-06-08T12:40:10.195Z,20.10
2019-06-08T12:42:38.302Z,19.90
2019-06-08T12:45:07.718Z,19.80
2019-06-08T12:47:38.142Z,20.50
2019-06-08T12:50:09.836Z,20.00
2019-06-08T12:52:39.128Z,19.80
2019-06-08T12:55:14.326Z,19.80
2019-06-08T12:57:38.769Z,19.90
2019-06-08T13:00:10.269Z,20.00
2019-06-08T13:02:39.412Z,19.80
2019-06-08T13:05:11.985Z,19.80
2019-06-08T13:07:38.779Z,19.40
2019-06-08T13:10:08.797Z,19.20
2019-06-08T13:12:40.870Z,19.10
2019-06-08T13:15:10.137Z,18.70
2019-06-08T13:17:40.534Z,18.70
2019-06-08T13:20:14.865Z,18.70
2019-06-08T13:22:44.466Z,18.80
2019-06-08T13:25:23.668Z,18.90
2019-06-08T13:27:43.833Z,19.10
2019-06-08T13:30:17.448Z,18.70
2019-06-08T13:32:44.747Z,18.70
2019-06-08T13:35:14.407Z,18.50
2019-06-08T13:37:43.082Z,18.50
2019-06-08T13:40:15.084Z,18.40
2019-06-08T13:42:48.357Z,18.60
2019-06-08T13:45:20.508Z,19.20
2019-06-08T13:47:50.514Z,19.60
2019-06-08T13:50:21.933Z,19.40
2019-06-08T13:52:50.245Z,19.50
2019-06-08T13:55:36.032Z,19.50
2019-06-08T13:57:49.269Z,19.10
2019-06-08T14:00:21.836Z,18.90
2019-06-08T14:02:49.887Z,19.10
2019-06-08T14:05:26.199Z,18.80
2019-06-08T14:07:51.841Z,18.80
2019-06-08T14:10:24.508Z,18.70
2019-06-08T14:12:53.694Z,18.70
2019-06-08T14:15:23.389Z,18.70
2019-06-08T14:17:51.957Z,18.70
2019-06-08T14:20:24.708Z,18.70
2019-06-08T14:22:53.861Z,18.80
2019-06-08T14:25:24.861Z,18.70
2019-06-08T14:27:53.839Z,18.70
2019-06-08T14:30:23.790Z,18.80
2019-06-08T14:32:53.302Z,18.80
2019-06-08T14:35:23.786Z,18.70
2019-06-08T14:37:52.099Z,18.60
2019-06-08T14:40:21.396Z,18.60
2019-06-08T14:42:50.081Z,18.80
2019-06-08T14:45:20.740Z,18.70
2019-06-08T14:47:49.314Z,18.50
2019-06-08T14:50:19.699Z,18.60
2019-06-08T14:52:50.397Z,18.60
2019-06-08T14:55:20.168Z,18.70
2019-06-08T14:57:48.684Z,18.90
2019-06-08T15:00:21.239Z,19.10
2019-06-08T15:02:50.544Z,18.90
2019-06-08T15:05:19.886Z,18.90
2019-06-08T15:07:48.818Z,19.00
2019-06-08T15:10:18.783Z,19.10
2019-06-08T15:12:48.914Z,19.20
2019-06-08T15:15:18.496Z,19.10
2019-06-08T15:17:48.108Z,18.90
2019-06-08T15:20:17.611Z,19.00
2019-06-08T15:22:46.422Z,18.80
2019-06-08T15:25:15.401Z,18.90
2019-06-08T15:27:44.027Z,19.00
2019-06-08T15:30:14.172Z,19.00
2019-06-08T15:32:42.786Z,19.00
2019-06-08T15:35:11.386Z,19.00
2019-06-08T15:37:42.651Z,18.90
2019-06-08T15:40:11.529Z,18.90
2019-06-08T15:42:40.172Z,18.80
2019-06-08T15:45:09.103Z,18.90
2019-06-08T15:47:40.548Z,18.90
2019-06-08T15:50:08.863Z,19.00
2019-06-08T15:52:38.084Z,19.10
2019-06-08T15:55:08.526Z,19.00
2019-06-08T15:57:40.806Z,19.00
2019-06-08T16:00:10.172Z,18.80
2019-06-08T16:02:39.354Z,18.80
2019-06-08T16:05:08.255Z,18.70
2019-06-08T16:07:36.909Z,18.80
2019-06-08T16:10:06.922Z,18.80
2019-06-08T16:12:35.699Z,18.90
2019-06-08T16:15:07.209Z,18.80
2019-06-08T16:17:36.344Z,18.50
2019-06-08T16:20:05.752Z,18.30
2019-06-08T16:22:34.499Z,18.50
2019-06-08T16:25:04.456Z,18.40
2019-06-08T16:27:33.906Z,18.50
2019-06-08T16:30:09.324Z,18.60
2019-06-08T16:32:33.508Z,18.30
2019-06-08T16:35:02.344Z,18.50
2019-06-08T16:37:31.595Z,18.60
2019-06-08T16:40:02.491Z,18.70
2019-06-08T16:42:32.376Z,19.00
2019-06-08T16:45:01.153Z,18.60
2019-06-08T16:47:31.038Z,18.20
2019-06-08T16:49:59.663Z,18.10
2019-06-08T16:52:28.441Z,18.30
2019-06-08T16:54:57.117Z,18.30
2019-06-08T16:57:25.692Z,18.20
2019-06-08T16:59:54.319Z,18.40
2019-06-08T17:02:22.877Z,18.30
2019-06-08T17:04:51.748Z,18.10
2019-06-08T17:07:20.383Z,18.00
2019-06-08T17:09:49.079Z,18.00
2019-06-08T17:12:17.723Z,18.10
2019-06-08T17:14:46.314Z,18.20
2019-06-08T17:17:14.869Z,18.30
2019-06-08T17:19:43.587Z,18.30
2019-06-08T17:22:12.204Z,18.40
2019-06-08T17:24:41.247Z,18.40
2019-06-08T17:27:25.258Z,18.40
2019-06-08T17:29:41.001Z,18.40
2019-06-08T17:32:11.240Z,18.50
2019-06-08T17:34:40.232Z,18.40
2019-06-08T17:37:08.956Z,18.30
2019-06-08T17:39:42.146Z,18.30
2019-06-08T17:42:11.269Z,18.30
2019-06-08T17:44:40.796Z,18.30
2019-06-08T17:47:09.431Z,18.30
2019-06-08T17:49:38.684Z,18.30
2019-06-08T17:52:07.475Z,18.30
2019-06-08T17:54:46.379Z,18.20
2019-06-08T17:57:12.379Z,17.50
2019-06-08T17:59:42.240Z,17.50
2019-06-08T18:02:15.497Z,17.40
2019-06-08T18:04:42.744Z,17.50
2019-06-08T18:07:11.439Z,17.50
2019-06-08T18:09:41.626Z,17.20
2019-06-08T18:12:10.289Z,17.20
2019-06-08T18:14:41.618Z,17.20
2019-06-08T18:17:09.165Z,17.10
2019-06-08T18:19:40.322Z,17.10
2019-06-08T18:22:15.125Z,17.10
2019-06-08T18:24:40.881Z,17.10
2019-06-08T18:27:10.021Z,17.20
2019-06-08T18:29:39.674Z,17.30
2019-06-08T18:32:11.791Z,17.30
2019-06-08T18:34:41.796Z,17.30
2019-06-08T18:37:12.576Z,17.40
2019-06-08T18:39:44.117Z,17.40
2019-06-08T18:42:14.686Z,17.20
2019-06-08T18:44:49.911Z,17.10
2019-06-08T18:47:19.324Z,17.00
2019-06-08T18:49:48.373Z,17.10
2019-06-08T18:52:18.729Z,17.00
2019-06-08T18:54:49.587Z,16.90
2019-06-08T18:57:17.740Z,16.90
2019-06-08T18:59:50.947Z,16.90
2019-06-08T19:02:18.118Z,16.80
2019-06-08T19:04:48.087Z,16.80
2019-06-08T19:07:17.541Z,16.70
2019-06-08T19:09:48.153Z,16.50
2019-06-08T19:12:19.398Z,16.30
2019-06-08T19:14:47.973Z,16.30
2019-06-08T19:17:17.495Z,16.20
2019-06-08T19:19:51.617Z,16.20
2019-06-08T19:22:18.937Z,16.20
2019-06-08T19:24:50.643Z,16.00
2019-06-08T19:27:22.006Z,16.00
2019-06-08T19:29:51.742Z,15.90
2019-06-08T19:32:22.060Z,15.60
2019-06-08T19:34:54.971Z,15.60
2019-06-08T19:37:23.941Z,15.70
2019-06-08T19:40:11.363Z,15.60
2019-06-08T19:42:50.131Z,15.50
2019-06-08T19:45:10.378Z,15.40
2019-06-08T19:47:39.117Z,15.20
2019-06-08T19:50:12.756Z,15.10
2019-06-08T19:52:43.517Z,15.10
2019-06-08T19:55:12.839Z,15.10
2019-06-08T19:57:45.399Z,15.00
2019-06-08T20:00:14.964Z,15.00
2019-06-08T20:02:44.628Z,15.00
2019-06-08T20:05:14.169Z,15.00
2019-06-08T20:07:43.043Z,14.90
2019-06-08T20:10:13.431Z,14.80
2019-06-08T20:12:43.228Z,14.60
2019-06-08T20:15:12.321Z,14.50
2019-06-08T20:17:41.627Z,14.30
2019-06-08T20:20:11.404Z,14.20
2019-06-08T20:22:40.189Z,14.00
2019-06-08T20:25:10.607Z,13.90
2019-06-08T20:27:41.044Z,13.80
2019-06-08T20:30:12.313Z,13.70
2019-06-08T20:32:40.284Z,13.70
2019-06-08T20:35:09.165Z,13.50
2019-06-08T20:37:38.163Z,13.40
2019-06-08T20:40:13.536Z,13.50
2019-06-08T20:42:39.152Z,13.50
2019-06-08T20:45:08.367Z,13.40
2019-06-08T20:47:39.097Z,13.30
2019-06-08T20:50:08.096Z,13.20
2019-06-08T20:52:39.289Z,13.30
2019-06-08T20:55:10.481Z,13.10
2019-06-08T20:57:40.030Z,13.10
2019-06-08T21:00:11.756Z,13.00
2019-06-08T21:02:39.829Z,13.10
2019-06-08T21:05:09.164Z,13.20
2019-06-08T21:07:37.754Z,13.30
2019-06-08T21:10:08.692Z,13.20
2019-06-08T21:12:37.901Z,13.20
2019-06-08T21:15:07.594Z,13.10
2019-06-08T21:17:38.213Z,13.10
2019-06-08T21:20:08.555Z,13.00
2019-06-08T21:22:39.002Z,12.90
2019-06-08T21:25:12.038Z,12.90
2019-06-08T21:27:41.248Z,12.80
2019-06-08T21:30:20.432Z,12.80
2019-06-08T21:32:43.647Z,12.90
2019-06-08T21:35:12.739Z,12.90
2019-06-08T21:37:41.287Z,12.90
2019-06-08T21:40:10.009Z,13.00
2019-06-08T21:42:38.598Z,13.00
2019-06-08T21:45:09.670Z,12.90
2019-06-08T21:47:37.947Z,12.80
2019-06-08T21:50:08.162Z,12.70
2019-06-08T21:52:37.032Z,12.60
2019-06-08T21:55:07.233Z,12.50
2019-06-08T21:57:37.168Z,12.60
2019-06-08T22:00:26.835Z,12.70
2019-06-08T22:02:38.324Z,12.60
2019-06-08T22:05:08.210Z,12.50
2019-06-08T22:07:37.761Z,12.30
2019-06-08T22:10:09.789Z,12.40
2019-06-08T22:12:40.352Z,12.40
2019-06-08T22:15:09.427Z,12.40
2019-06-08T22:17:38.423Z,12.30
2019-06-08T22:20:08.276Z,12.30
2019-06-08T22:22:37.792Z,12.30
2019-06-08T22:25:08.173Z,12.40
2019-06-08T22:27:38.222Z,12.30
2019-06-08T22:30:11.660Z,12.30
2019-06-08T22:32:38.753Z,12.30
2019-06-08T22:35:08.017Z,12.20
2019-06-08T22:37:37.998Z,12.20
2019-06-08T22:40:08.317Z,12.20
2019-06-08T22:42:37.763Z,12.30
2019-06-08T22:45:08.224Z,12.30
2019-06-08T22:47:38.718Z,12.30
2019-06-08T22:50:27.699Z,12.30
2019-06-08T22:52:59.350Z,12.30
2019-06-08T22:55:27.788Z,12.30
2019-06-08T22:57:59.575Z,12.30
2019-06-08T23:00:27.853Z,12.20
2019-06-08T23:03:01.099Z,12.10
2019-06-08T23:05:27.919Z,12.20
2019-06-08T23:07:59.718Z,12.20
2019-06-08T23:10:26.858Z,12.20
2019-06-08T23:12:58.918Z,12.00
2019-06-08T23:15:26.197Z,11.90
2019-06-08T23:17:55.581Z,11.80
2019-06-08T23:20:27.526Z,11.70
2019-06-08T23:22:55.679Z,11.60
2019-06-08T23:25:27.780Z,11.60
2019-06-08T23:27:56.243Z,11.60
2019-06-08T23:30:27.591Z,11.60
2019-06-08T23:32:56.565Z,11.70
2019-06-08T23:35:27.494Z,11.80
2019-06-08T23:37:56.813Z,11.70
2019-06-08T23:40:27.251Z,11.60
2019-06-08T23:42:58.102Z,11.60
2019-06-08T23:45:27.209Z,11.50
2019-06-08T23:47:58.390Z,11.40
2019-06-08T23:50:27.255Z,11.40
2019-06-08T23:52:55.859Z,11.50
2019-06-08T23:55:24.522Z,11.60
2019-06-08T23:57:53.085Z,11.50
